Sponsor www.jackysshop.nl


METAR rapporten vliegvelden

   
EBAW - Antwerp
Gewijzigd: 17-10-2018 15:50
Gedeeltelijk bewolkt  
Gedeeltelijk bewolkt  
   Wind: NW 5.6 km/h
Wind: NW 5.6 km/h
Temperatuur: 19°C
Dauwpunt: 12°C
Vochtigheid: 64%
Barometer: 1019 hPa
Bewolking: Gedeeltelijk bewolkt
Zicht: meer dan 10 km
Bewolking: Gedeeltelijk bewolkt 3300 ft
EBAW 171350Z 31003KT 270V350 9999 SCT033 19/12 Q1019 NOSIG
EBLG - Li├Ęge
Gewijzigd: 17-10-2018 15:50
Gedeeltelijk bewolkt  
Gedeeltelijk bewolkt  
   Wind: NNW 7.4 km/h
Wind: NNW 7.4 km/h
Temperatuur: 19°C
Dauwpunt: 13°C
Vochtigheid: 68%
Barometer: 1019 hPa
Bewolking: Gedeeltelijk bewolkt
Zicht: 8 km
Bewolking: Gedeeltelijk bewolkt
EBLG 171350Z 34004KT 300V010 8000 NSC 19/13 Q1019 NOSIG
EBCV - Mons/Bergen
Gewijzigd: 17-10-2018 15:25
Gedeeltelijk bewolkt  
Gedeeltelijk bewolkt  
   Wind: varieert 1.9 km/h
Wind: varieert 1.9 km/h
Temperatuur: 20°C
Dauwpunt: 13°C
Vochtigheid: 64%
Barometer: 1019 hPa
Bewolking: Gedeeltelijk bewolkt
Zicht: meer dan 10 km
Bewolking: Gedeeltelijk bewolkt 2800 ft
EBCV 171325Z AUTO VRB01KT 9999 SCT028/// 20/13 Q1019 BLU
EHBK - Maastricht
Gewijzigd: 17-10-2018 15:55
Gedeeltelijk bewolkt  
Gedeeltelijk bewolkt  
   Wind: varieert 3.7 km/h
Wind: varieert 3.7 km/h
Temperatuur: 21°C
Dauwpunt: 12°C
Vochtigheid: 57%
Barometer: 1018 hPa
Bewolking: Gedeeltelijk bewolkt
Zicht: 9 km
Bewolking: Gedeeltelijk bewolkt
EHBK 171355Z AUTO VRB02KT 9000 NSC 21/12 Q1018 NOSIG
ELLX - Luxemburg
Gewijzigd: 17-10-2018 15:50
Helder  
Helder  
   Wind: NO 9.3 km/h
Wind: NO 9.3 km/h
Temperatuur: 22°C
Dauwpunt: 9°C
Vochtigheid: 44%
Barometer: 1018 hPa
Zicht: meer dan 10 km
Bewolking: Helder
ELLX 171350Z 05005KT 010V100 CAVOK 22/09 Q1018 NOSIG
EBOS - Oostende
Gewijzigd: 17-10-2018 15:50
Licht bewolkt  
Licht bewolkt  
   Wind: Noorden 9.3 km/h
Wind: Noorden 9.3 km/h
Temperatuur: 17°C
Dauwpunt: 11°C
Vochtigheid: 68%
Barometer: 1020 hPa
Bewolking: Licht bewolkt
Zicht: meer dan 10 km
Bewolking: Licht bewolkt 3000 ft
EBOS 171350Z 35005KT 320V020 9999 FEW030 17/11 Q1020 NOSIG

Script ontwikkeld door  Saratoga-weather.org Aangepast voor de template door  Weerstation Leuven